sensor_id;sensor_type;location;lat;lon;timestamp;pressure;altitude;pressure_sealevel;temperature;humidity
36630;BME280;36256;42.154;23.002;2023-02-24T00:02:01;97155.63;;;9.32;93.95
36630;BME280;36256;42.154;23.002;2023-02-24T00:04:32;97164.34;;;9.34;92.86
36630;BME280;36256;42.154;23.002;2023-02-24T00:06:59;97161.34;;;9.41;92.75
36630;BME280;36256;42.154;23.002;2023-02-24T00:09:28;97164.81;;;9.45;92.17
36630;BME280;36256;42.154;23.002;2023-02-24T00:12:01;97160.66;;;9.50;92.12
36630;BME280;36256;42.154;23.002;2023-02-24T00:14:32;97161.09;;;9.36;93.14
36630;BME280;36256;42.154;23.002;2023-02-24T00:16:59;97152.38;;;9.34;94.50
36630;BME280;36256;42.154;23.002;2023-02-24T00:19:28;97152.34;;;9.46;93.71
36630;BME280;36256;42.154;23.002;2023-02-24T00:21:58;97133.00;;;9.39;93.62
36630;BME280;36256;42.154;23.002;2023-02-24T00:24:26;97153.81;;;9.38;94.06
36630;BME280;36256;42.154;23.002;2023-02-24T00:26:53;97154.47;;;9.42;94.56
36630;BME280;36256;42.154;23.002;2023-02-24T00:29:21;97154.72;;;9.35;95.43
36630;BME280;36256;42.154;23.002;2023-02-24T00:31:49;97155.63;;;9.32;94.99
36630;BME280;36256;42.154;23.002;2023-02-24T00:34:22;97153.38;;;9.27;95.06
36630;BME280;36256;42.154;23.002;2023-02-24T00:36:49;97146.09;;;9.30;94.61
36630;BME280;36256;42.154;23.002;2023-02-24T00:39:15;97148.44;;;9.31;94.14
36630;BME280;36256;42.154;23.002;2023-02-24T00:41:43;97144.97;;;9.27;95.11
36630;BME280;36256;42.154;23.002;2023-02-24T00:44:12;97141.75;;;9.29;95.47
36630;BME280;36256;42.154;23.002;2023-02-24T00:46:41;97134.78;;;9.33;94.05
36630;BME280;36256;42.154;23.002;2023-02-24T00:49:17;97115.09;;;9.24;94.18
36630;BME280;36256;42.154;23.002;2023-02-24T00:51:47;97129.63;;;9.32;95.11
36630;BME280;36256;42.154;23.002;2023-02-24T00:54:15;97128.06;;;9.31;94.33
36630;BME280;36256;42.154;23.002;2023-02-24T00:56:43;97130.56;;;9.16;95.35
36630;BME280;36256;42.154;23.002;2023-02-24T00:59:12;97121.59;;;8.96;95.70
36630;BME280;36256;42.154;23.002;2023-02-24T01:01:41;97122.16;;;9.04;95.34
36630;BME280;36256;42.154;23.002;2023-02-24T01:04:08;97123.84;;;9.01;96.15
36630;BME280;36256;42.154;23.002;2023-02-24T01:06:40;97121.25;;;9.07;95.60
36630;BME280;36256;42.154;23.002;2023-02-24T01:09:10;97112.06;;;8.94;96.94
36630;BME280;36256;42.154;23.002;2023-02-24T01:11:43;97112.75;;;8.85;97.00
36630;BME280;36256;42.154;23.002;2023-02-24T01:14:31;97114.88;;;8.81;97.50
36630;BME280;36256;42.154;23.002;2023-02-24T01:16:59;97101.34;;;8.80;97.97
36630;BME280;36256;42.154;23.002;2023-02-24T01:19:30;97091.16;;;8.73;98.85
36630;BME280;36256;42.154;23.002;2023-02-24T01:21:58;97092.16;;;8.66;100.00
36630;BME280;36256;42.154;23.002;2023-02-24T01:24:40;97097.84;;;8.63;99.71
36630;BME280;36256;42.154;23.002;2023-02-24T01:27:08;97093.47;;;8.62;100.00
36630;BME280;36256;42.154;23.002;2023-02-24T01:29:35;97097.50;;;8.48;100.00
36630;BME280;36256;42.154;23.002;2023-02-24T01:32:13;97097.50;;;8.48;100.00
36630;BME280;36256;42.154;23.002;2023-02-24T01:34:43;97099.72;;;8.53;100.00
36630;BME280;36256;42.154;23.002;2023-02-24T01:37:09;97098.06;;;8.56;100.00
36630;BME280;36256;42.154;23.002;2023-02-24T01:39:43;97092.81;;;8.58;100.00
36630;BME280;36256;42.154;23.002;2023-02-24T01:42:12;97078.28;;;8.50;100.00
36630;BME280;36256;42.154;23.002;2023-02-24T01:47:09;97080.28;;;8.62;100.00
36630;BME280;36256;42.154;23.002;2023-02-24T01:49:44;97083.63;;;8.57;100.00
36630;BME280;36256;42.154;23.002;2023-02-24T01:52:22;97089.53;;;8.47;100.00
36630;BME280;36256;42.154;23.002;2023-02-24T01:54:55;97079.94;;;8.48;100.00
36630;BME280;36256;42.154;23.002;2023-02-24T01:57:25;97087.44;;;8.51;100.00
36630;BME280;36256;42.154;23.002;2023-02-24T01:59:54;97095.59;;;8.58;100.00
36630;BME280;36256;42.154;23.002;2023-02-24T02:02:27;97098.72;;;8.60;100.00
36630;BME280;36256;42.154;23.002;2023-02-24T02:05:05;97093.06;;;8.63;100.00
36630;BME280;36256;42.154;23.002;2023-02-24T02:07:35;97104.00;;;8.70;100.00
36630;BME280;36256;42.154;23.002;2023-02-24T02:10:05;97101.31;;;8.67;100.00
36630;BME280;36256;42.154;23.002;2023-02-24T02:12:34;97095.94;;;8.60;100.00
36630;BME280;36256;42.154;23.002;2023-02-24T02:15:11;97103.44;;;8.63;100.00
36630;BME280;36256;42.154;23.002;2023-02-24T02:18:05;97106.38;;;8.72;100.00
36630;BME280;36256;42.154;23.002;2023-02-24T02:26:12;97096.06;;;8.94;100.00
36630;BME280;36256;42.154;23.002;2023-02-24T02:34:55;97107.06;;;9.01;100.00
36630;BME280;36256;42.154;23.002;2023-02-24T02:37:33;97099.06;;;9.12;99.43
36630;BME280;36256;42.154;23.002;2023-02-24T02:40:22;97101.53;;;9.10;99.82
36630;BME280;36256;42.154;23.002;2023-02-24T02:43:08;97098.28;;;9.24;98.75
36630;BME280;36256;42.154;23.002;2023-02-24T02:45:43;97090.22;;;9.26;98.77
36630;BME280;36256;42.154;23.002;2023-02-24T02:48:19;97101.66;;;9.19;99.52
36630;BME280;36256;42.154;23.002;2023-02-24T02:50:57;97097.97;;;9.22;100.00
36630;BME280;36256;42.154;23.002;2023-02-24T02:53:35;97101.66;;;9.19;100.00
36630;BME280;36256;42.154;23.002;2023-02-24T02:56:13;97106.69;;;9.24;100.00
36630;BME280;36256;42.154;23.002;2023-02-24T02:58:45;97102.22;;;9.27;100.00
36630;BME280;36256;42.154;23.002;2023-02-24T03:01:15;97085.94;;;9.34;100.00
36630;BME280;36256;42.154;23.002;2023-02-24T03:03:48;97084.63;;;9.26;99.94
36630;BME280;36256;42.154;23.002;2023-02-24T03:06:19;97098.72;;;9.23;100.00
36630;BME280;36256;42.154;23.002;2023-02-24T03:09:10;97100.44;;;9.20;100.00
36630;BME280;36256;42.154;23.002;2023-02-24T03:11:43;97094.50;;;9.18;100.00
36630;BME280;36256;42.154;23.002;2023-02-24T03:14:15;97086.75;;;9.22;99.56
36630;BME280;36256;42.154;23.002;2023-02-24T03:16:46;97090.22;;;9.39;98.30
36630;BME280;36256;42.154;23.002;2023-02-24T03:19:17;97091.56;;;9.34;98.10
36630;BME280;36256;42.154;23.002;2023-02-24T03:21:53;97081.72;;;9.17;99.18
36630;BME280;36256;42.154;23.002;2023-02-24T03:24:23;97102.44;;;9.20;100.00
36630;BME280;36256;42.154;23.002;2023-02-24T03:26:56;97101.66;;;9.19;100.00
36630;BME280;36256;42.154;23.002;2023-02-24T03:29:42;97100.44;;;9.20;100.00
36630;BME280;36256;42.154;23.002;2023-02-24T03:32:16;97101.75;;;9.28;100.00
36630;BME280;36256;42.154;23.002;2023-02-24T03:35:42;97102.09;;;9.30;100.00
36630;BME280;36256;42.154;23.002;2023-02-24T03:38:02;97099.16;;;9.34;100.00
36630;BME280;36256;42.154;23.002;2023-02-24T03:40:29;97094.34;;;9.34;100.00
36630;BME280;36256;42.154;23.002;2023-02-24T03:43:06;97097.81;;;9.38;100.00
36630;BME280;36256;42.154;23.002;2023-02-24T03:45:37;97092.34;;;9.35;100.00
36630;BME280;36256;42.154;23.002;2023-02-24T03:48:07;97089.41;;;9.38;100.00
36630;BME280;36256;42.154;23.002;2023-02-24T03:50:35;97079.09;;;9.48;99.42
36630;BME280;36256;42.154;23.002;2023-02-24T03:53:23;97077.47;;;9.60;98.09
36630;BME280;36256;42.154;23.002;2023-02-24T04:01:31;97079.91;;;9.70;96.43
36630;BME280;36256;42.154;23.002;2023-02-24T04:04:04;97082.16;;;9.75;96.55
36630;BME280;36256;42.154;23.002;2023-02-24T04:06:43;97081.03;;;9.73;96.64
36630;BME280;36256;42.154;23.002;2023-02-24T04:12:25;97081.44;;;9.49;100.00
36630;BME280;36256;42.154;23.002;2023-02-24T04:17:53;97085.28;;;9.30;100.00
36630;BME280;36256;42.154;23.002;2023-02-24T04:20:25;97068.06;;;9.19;100.00
36630;BME280;36256;42.154;23.002;2023-02-24T04:23:07;97082.94;;;9.29;100.00
36630;BME280;36256;42.154;23.002;2023-02-24T04:25:38;97084.03;;;9.31;100.00
36630;BME280;36256;42.154;23.002;2023-02-24T04:28:08;97080.03;;;9.32;100.00
36630;BME280;36256;42.154;23.002;2023-02-24T04:30:40;97078.09;;;9.29;100.00
36630;BME280;36256;42.154;23.002;2023-02-24T04:33:08;97055.84;;;9.26;100.00
36630;BME280;36256;42.154;23.002;2023-02-24T04:35:36;97076.53;;;9.41;100.00
36630;BME280;36256;42.154;23.002;2023-02-24T04:38:03;97068.50;;;9.30;100.00
36630;BME280;36256;42.154;23.002;2023-02-24T04:40:30;97076.00;;;9.21;100.00
36630;BME280;36256;42.154;23.002;2023-02-24T04:42:57;97071.31;;;9.18;100.00
36630;BME280;36256;42.154;23.002;2023-02-24T04:45:28;97075.25;;;9.20;100.00
36630;BME280;36256;42.154;23.002;2023-02-24T04:47:57;97075.25;;;9.20;100.00
36630;BME280;36256;42.154;23.002;2023-02-24T04:50:31;97078.47;;;9.19;100.00
36630;BME280;36256;42.154;23.002;2023-02-24T04:53:04;97082.06;;;9.19;100.00
36630;BME280;36256;42.154;23.002;2023-02-24T04:55:35;97074.31;;;9.23;100.00
36630;BME280;36256;42.154;23.002;2023-02-24T04:58:09;97067.94;;;9.10;100.00
36630;BME280;36256;42.154;23.002;2023-02-24T05:00:36;97063.41;;;9.04;100.00
36630;BME280;36256;42.154;23.002;2023-02-24T05:03:06;97081.38;;;9.28;100.00
36630;BME280;36256;42.154;23.002;2023-02-24T05:05:33;97071.63;;;9.32;100.00
36630;BME280;36256;42.154;23.002;2023-02-24T05:08:08;97069.28;;;9.31;100.00
36630;BME280;36256;42.154;23.002;2023-02-24T05:10:43;97056.63;;;9.26;100.00
36630;BME280;36256;42.154;23.002;2023-02-24T05:13:15;97064.47;;;9.19;100.00
36630;BME280;36256;42.154;23.002;2023-02-24T05:15:44;97065.06;;;9.14;100.00
36630;BME280;36256;42.154;23.002;2023-02-24T05:18:13;97068.28;;;9.12;100.00
36630;BME280;36256;42.154;23.002;2023-02-24T05:20:48;97062.59;;;9.16;100.00
36630;BME280;36256;42.154;23.002;2023-02-24T05:23:36;97060.91;;;9.18;100.00
36630;BME280;36256;42.154;23.002;2023-02-24T05:26:06;97066.06;;;9.07;100.00
36630;BME280;36256;42.154;23.002;2023-02-24T05:28:37;97072.44;;;9.08;100.00
36630;BME280;36256;42.154;23.002;2023-02-24T05:31:07;97076.34;;;9.10;100.00
36630;BME280;36256;42.154;23.002;2023-02-24T05:33:35;97078.59;;;9.15;100.00
36630;BME280;36256;42.154;23.002;2023-02-24T05:36:04;97076.91;;;9.18;100.00
36630;BME280;36256;42.154;23.002;2023-02-24T05:38:32;97085.06;;;9.12;100.00
36630;BME280;36256;42.154;23.002;2023-02-24T05:41:08;97074.25;;;9.14;100.00
36630;BME280;36256;42.154;23.002;2023-02-24T05:43:43;97077.69;;;9.18;100.00
36630;BME280;36256;42.154;23.002;2023-02-24T05:46:16;97075.66;;;9.19;100.00
36630;BME280;36256;42.154;23.002;2023-02-24T05:48:43;97085.50;;;9.23;100.00
36630;BME280;36256;42.154;23.002;2023-02-24T05:51:10;97089.66;;;9.19;100.00
36630;BME280;36256;42.154;23.002;2023-02-24T05:53:38;97079.47;;;9.12;100.00
36630;BME280;36256;42.154;23.002;2023-02-24T05:56:08;97092.78;;;9.21;100.00
36630;BME280;36256;42.154;23.002;2023-02-24T05:58:36;97084.84;;;9.19;100.00
36630;BME280;36256;42.154;23.002;2023-02-24T06:01:10;97098.72;;;9.35;100.00
36630;BME280;36256;42.154;23.002;2023-02-24T06:03:43;97097.81;;;9.38;100.00
36630;BME280;36256;42.154;23.002;2023-02-24T06:06:15;97099.25;;;9.43;100.00
36630;BME280;36256;42.154;23.002;2023-02-24T06:08:42;97092.22;;;9.38;100.00
36630;BME280;36256;42.154;23.002;2023-02-24T06:11:16;97105.44;;;9.38;100.00
36630;BME280;36256;42.154;23.002;2023-02-24T06:13:47;97101.88;;;9.37;100.00
36630;BME280;36256;42.154;23.002;2023-02-24T06:16:16;97095.34;;;9.40;100.00
36630;BME280;36256;42.154;23.002;2023-02-24T06:18:46;97097.59;;;9.45;100.00
36630;BME280;36256;42.154;23.002;2023-02-24T06:21:14;97099.69;;;9.54;100.00
36630;BME280;36256;42.154;23.002;2023-02-24T06:23:41;97115.94;;;9.46;100.00
36630;BME280;36256;42.154;23.002;2023-02-24T06:26:08;97094.03;;;9.32;100.00
36630;BME280;36256;42.154;23.002;2023-02-24T06:28:45;97110.25;;;9.50;100.00
36630;BME280;36256;42.154;23.002;2023-02-24T06:31:11;97111.34;;;9.52;100.00
36630;BME280;36256;42.154;23.002;2023-02-24T06:33:39;97119.06;;;9.48;100.00
36630;BME280;36256;42.154;23.002;2023-02-24T06:36:07;97099.63;;;9.32;100.00
36630;BME280;36256;42.154;23.002;2023-02-24T06:38:35;97115.28;;;9.42;100.00
36630;BME280;36256;42.154;23.002;2023-02-24T06:41:03;97106.31;;;9.47;100.00
36630;BME280;36256;42.154;23.002;2023-02-24T06:43:40;97115.22;;;9.68;100.00
36630;BME280;36256;42.154;23.002;2023-02-24T06:46:13;97113.31;;;9.77;100.00
36630;BME280;36256;42.154;23.002;2023-02-24T06:48:41;97122.88;;;9.89;100.00
36630;BME280;36256;42.154;23.002;2023-02-24T06:51:12;97119.06;;;9.95;100.00
36630;BME280;36256;42.154;23.002;2023-02-24T06:53:39;97111.75;;;9.98;100.00
36630;BME280;36256;42.154;23.002;2023-02-24T06:56:14;97108.13;;;10.10;100.00
36630;BME280;36256;42.154;23.002;2023-02-24T06:58:42;97118.13;;;10.11;100.00
36630;BME280;36256;42.154;23.002;2023-02-24T07:01:14;97116.63;;;10.19;100.00
36630;BME280;36256;42.154;23.002;2023-02-24T07:03:41;97111.91;;;9.94;100.00
36630;BME280;36256;42.154;23.002;2023-02-24T07:06:29;97112.41;;;10.02;100.00
36630;BME280;36256;42.154;23.002;2023-02-24T07:08:57;97112.84;;;10.13;100.00
36630;BME280;36256;42.154;23.002;2023-02-24T07:11:24;97120.16;;;10.32;100.00
36630;BME280;36256;42.154;23.002;2023-02-24T07:13:51;97119.88;;;10.39;100.00
36630;BME280;36256;42.154;23.002;2023-02-24T07:16:21;97101.66;;;10.35;100.00
36630;BME280;36256;42.154;23.002;2023-02-24T07:18:59;97108.25;;;10.50;100.00
36630;BME280;36256;42.154;23.002;2023-02-24T07:21:29;97108.47;;;10.55;100.00
36630;BME280;36256;42.154;23.002;2023-02-24T07:23:56;97098.13;;;10.43;100.00
36630;BME280;36256;42.154;23.002;2023-02-24T07:26:26;97104.88;;;10.55;100.00
36630;BME280;36256;42.154;23.002;2023-02-24T07:28:53;97106.69;;;10.70;100.00
36630;BME280;36256;42.154;23.002;2023-02-24T07:31:21;97106.69;;;10.70;100.00
36630;BME280;36256;42.154;23.002;2023-02-24T07:33:54;97103.78;;;10.83;100.00
36630;BME280;36256;42.154;23.002;2023-02-24T07:36:23;97099.88;;;10.80;100.00
36630;BME280;36256;42.154;23.002;2023-02-24T07:38:53;97101.31;;;10.85;100.00
36630;BME280;36256;42.154;23.002;2023-02-24T07:41:21;97086.44;;;10.75;100.00
36630;BME280;36256;42.154;23.002;2023-02-24T07:43:49;97107.56;;;10.89;100.00
36630;BME280;36256;42.154;23.002;2023-02-24T07:46:22;97095.13;;;10.99;100.00
36630;BME280;36256;42.154;23.002;2023-02-24T07:48:54;97089.56;;;11.08;100.00
36630;BME280;36256;42.154;23.002;2023-02-24T07:51:23;97098.16;;;11.14;100.00
36630;BME280;36256;42.154;23.002;2023-02-24T07:53:52;97103.94;;;11.19;100.00
36630;BME280;36256;42.154;23.002;2023-02-24T07:56:21;97095.53;;;11.19;100.00
36630;BME280;36256;42.154;23.002;2023-02-24T07:59:03;97091.63;;;11.26;100.00
36630;BME280;36256;42.154;23.002;2023-02-24T08:01:34;97091.34;;;11.33;100.00
36630;BME280;36256;42.154;23.002;2023-02-24T08:04:09;97084.50;;;11.43;100.00
36630;BME280;36256;42.154;23.002;2023-02-24T08:06:40;97085.44;;;11.40;100.00
36630;BME280;36256;42.154;23.002;2023-02-24T08:09:14;97086.97;;;11.41;100.00
36630;BME280;36256;42.154;23.002;2023-02-24T08:11:48;97081.53;;;11.37;100.00
36630;BME280;36256;42.154;23.002;2023-02-24T08:14:19;97084.06;;;11.44;100.00
36630;BME280;36256;42.154;23.002;2023-02-24T08:16:51;97084.19;;;11.41;100.00
36630;BME280;36256;42.154;23.002;2023-02-24T08:19:19;97081.38;;;11.41;100.00
36630;BME280;36256;42.154;23.002;2023-02-24T08:21:51;97081.72;;;11.52;100.00
36630;BME280;36256;42.154;23.002;2023-02-24T08:24:22;97079.22;;;11.54;100.00
36630;BME280;36256;42.154;23.002;2023-02-24T08:26:52;97084.69;;;11.57;100.00
36630;BME280;36256;42.154;23.002;2023-02-24T08:29:34;97080.16;;;11.60;100.00
36630;BME280;36256;42.154;23.002;2023-02-24T08:32:38;97083.16;;;11.65;100.00
36630;BME280;36256;42.154;23.002;2023-02-24T08:35:17;97080.22;;;11.69;100.00
36630;BME280;36256;42.154;23.002;2023-02-24T08:37:49;97087.09;;;11.77;100.00
36630;BME280;36256;42.154;23.002;2023-02-24T08:40:23;97087.88;;;11.77;100.00
36630;BME280;36256;42.154;23.002;2023-02-24T08:43:03;97081.78;;;11.79;100.00
36630;BME280;36256;42.154;23.002;2023-02-24T08:45:51;97080.03;;;11.72;100.00
36630;BME280;36256;42.154;23.002;2023-02-24T08:48:23;97082.41;;;11.74;100.00
36630;BME280;36256;42.154;23.002;2023-02-24T08:51:24;97079.41;;;11.68;100.00
36630;BME280;36256;42.154;23.002;2023-02-24T08:53:57;97084.72;;;11.66;100.00
36630;BME280;36256;42.154;23.002;2023-02-24T08:56:27;97085.84;;;11.69;100.00
36630;BME280;36256;42.154;23.002;2023-02-24T08:59:00;97076.13;;;11.70;100.00
36630;BME280;36256;42.154;23.002;2023-02-24T09:01:39;97081.47;;;11.77;100.00
36630;BME280;36256;42.154;23.002;2023-02-24T09:04:29;97089.88;;;11.68;100.00
36630;BME280;36256;42.154;23.002;2023-02-24T09:06:56;97084.91;;;11.72;100.00
36630;BME280;36256;42.154;23.002;2023-02-24T09:09:36;97087.41;;;11.79;100.00
36630;BME280;36256;42.154;23.002;2023-02-24T09:12:09;97095.69;;;11.82;100.00
36630;BME280;36256;42.154;23.002;2023-02-24T09:15:00;97081.63;;;11.82;100.00
36630;BME280;36256;42.154;23.002;2023-02-24T09:17:30;97086.63;;;11.88;100.00
36630;BME280;36256;42.154;23.002;2023-02-24T09:20:20;97083.03;;;11.87;100.00
36630;BME280;36256;42.154;23.002;2023-02-24T09:22:54;97088.66;;;11.96;100.00
36630;BME280;36256;42.154;23.002;2023-02-24T09:25:24;97077.41;;;12.05;100.00
36630;BME280;36256;42.154;23.002;2023-02-24T09:28:19;97082.41;;;12.01;100.00
36630;BME280;36256;42.154;23.002;2023-02-24T09:30:50;97081.78;;;12.06;100.00
36630;BME280;36256;42.154;23.002;2023-02-24T09:33:27;97092.75;;;11.95;100.00
36630;BME280;36256;42.154;23.002;2023-02-24T09:36:03;97084.75;;;12.03;100.00
36630;BME280;36256;42.154;23.002;2023-02-24T09:38:41;97081.31;;;11.90;100.00
36630;BME280;36256;42.154;23.002;2023-02-24T09:41:43;97074.28;;;11.85;100.00
36630;BME280;36256;42.154;23.002;2023-02-24T09:47:03;97074.13;;;11.98;100.00
36630;BME280;36256;42.154;23.002;2023-02-24T09:49:43;97077.09;;;12.03;100.00
36630;BME280;36256;42.154;23.002;2023-02-24T09:52:14;97083.34;;;12.16;100.00
36630;BME280;36256;42.154;23.002;2023-02-24T09:54:49;97076.47;;;12.17;100.00
36630;BME280;36256;42.154;23.002;2023-02-24T09:57:51;97070.06;;;12.17;100.00
36630;BME280;36256;42.154;23.002;2023-02-24T10:03:26;97066.00;;;12.18;100.00
36630;BME280;36256;42.154;23.002;2023-02-24T10:06:27;97054.44;;;12.25;100.00
36630;BME280;36256;42.154;23.002;2023-02-24T10:11:56;97060.22;;;12.21;100.00
36630;BME280;36256;42.154;23.002;2023-02-24T10:14:36;97053.34;;;12.22;100.00
36630;BME280;36256;42.154;23.002;2023-02-24T10:17:18;97049.25;;;12.32;100.00
36630;BME280;36256;42.154;23.002;2023-02-24T10:22:50;97049.25;;;12.32;100.00
36630;BME280;36256;42.154;23.002;2023-02-24T10:25:44;97049.44;;;12.29;100.00
36630;BME280;36256;42.154;23.002;2023-02-24T10:28:43;97036.13;;;12.29;100.00
36630;BME280;36256;42.154;23.002;2023-02-24T10:31:24;97029.09;;;12.34;100.00
36630;BME280;36256;42.154;23.002;2023-02-24T10:33:59;97024.69;;;12.42;100.00
36630;BME280;36256;42.154;23.002;2023-02-24T10:36:29;97020.16;;;12.44;100.00
36630;BME280;36256;42.154;23.002;2023-02-24T10:39:12;97025.47;;;12.42;98.78
36630;BME280;36256;42.154;23.002;2023-02-24T10:41:46;97014.88;;;12.37;99.34
36630;BME280;36256;42.154;23.002;2023-02-24T10:44:25;97012.94;;;12.52;99.29
36630;BME280;36256;42.154;23.002;2023-02-24T10:47:00;96999.50;;;12.56;98.04
36630;BME280;36256;42.154;23.002;2023-02-24T10:49:42;96998.66;;;12.65;96.45
36630;BME280;36256;42.154;23.002;2023-02-24T10:52:24;97002.41;;;12.71;96.15
36630;BME280;36256;42.154;23.002;2023-02-24T10:55:33;96984.28;;;12.63;96.00
36630;BME280;36256;42.154;23.002;2023-02-24T10:58:32;96976.66;;;12.87;94.60
36630;BME280;36256;42.154;23.002;2023-02-24T11:01:12;96982.56;;;12.98;93.69
36630;BME280;36256;42.154;23.002;2023-02-24T11:03:58;96972.06;;;12.99;93.01
36630;BME280;36256;42.154;23.002;2023-02-24T11:06:37;96970.50;;;12.98;93.23
36630;BME280;36256;42.154;23.002;2023-02-24T11:11:56;96938.53;;;13.10;93.05
36630;BME280;36256;42.154;23.002;2023-02-24T11:14:51;96952.22;;;13.26;91.92
36630;BME280;36256;42.154;23.002;2023-02-24T11:17:46;96951.84;;;13.33;91.56
36630;BME280;36256;42.154;23.002;2023-02-24T11:22:44;96924.53;;;13.77;87.40
36630;BME280;36256;42.154;23.002;2023-02-24T11:25:24;96941.59;;;14.12;85.64
36630;BME280;36256;42.154;23.002;2023-02-24T11:27:53;96930.25;;;14.36;84.68
36630;BME280;36256;42.154;23.002;2023-02-24T11:35:45;96903.38;;;14.40;82.51
36630;BME280;36256;42.154;23.002;2023-02-24T11:43:33;96891.41;;;14.80;79.21
36630;BME280;36256;42.154;23.002;2023-02-24T11:46:09;96871.47;;;14.69;78.56
36630;BME280;36256;42.154;23.002;2023-02-24T11:48:48;96888.91;;;14.67;78.38
36630;BME280;36256;42.154;23.002;2023-02-24T11:51:21;96883.38;;;14.58;79.21
36630;BME280;36256;42.154;23.002;2023-02-24T11:53:53;96875.25;;;14.66;77.55
36630;BME280;36256;42.154;23.002;2023-02-24T11:56:30;96868.56;;;14.83;77.19
36630;BME280;36256;42.154;23.002;2023-02-24T11:59:14;96872.81;;;14.93;76.03
36630;BME280;36256;42.154;23.002;2023-02-24T12:02:13;96866.03;;;14.85;75.26
36630;BME280;36256;42.154;23.002;2023-02-24T12:04:53;96871.19;;;14.87;76.44
36630;BME280;36256;42.154;23.002;2023-02-24T12:07:31;96847.25;;;15.03;75.61
36630;BME280;36256;42.154;23.002;2023-02-24T12:10:39;96854.66;;;15.40;73.99
36630;BME280;36256;42.154;23.002;2023-02-24T12:13:56;96840.53;;;15.60;72.36
36630;BME280;36256;42.154;23.002;2023-02-24T12:16:30;96839.06;;;15.70;73.15
36630;BME280;36256;42.154;23.002;2023-02-24T12:19:17;96821.09;;;15.73;69.76
36630;BME280;36256;42.154;23.002;2023-02-24T12:21:51;96811.97;;;15.58;70.71
36630;BME280;36256;42.154;23.002;2023-02-24T12:24:20;96820.47;;;15.90;70.06
36630;BME280;36256;42.154;23.002;2023-02-24T12:32:27;96813.38;;;16.00;69.65
36630;BME280;36256;42.154;23.002;2023-02-24T12:35:10;96800.06;;;15.80;67.42
36630;BME280;36256;42.154;23.002;2023-02-24T12:46:35;96797.47;;;15.77;67.74
36630;BME280;36256;42.154;23.002;2023-02-24T12:51:49;96794.94;;;15.53;67.69
36630;BME280;36256;42.154;23.002;2023-02-24T12:54:46;96788.38;;;15.41;68.55
36630;BME280;36256;42.154;23.002;2023-02-24T12:57:27;96786.97;;;15.31;68.89
36630;BME280;36256;42.154;23.002;2023-02-24T13:00:03;96787.38;;;15.44;68.48
36630;BME280;36256;42.154;23.002;2023-02-24T13:06:14;96771.88;;;15.40;67.70
36630;BME280;36256;42.154;23.002;2023-02-24T13:16:37;96765.00;;;15.66;67.41
36630;BME280;36256;42.154;23.002;2023-02-24T13:19:20;96758.84;;;15.73;66.39
36630;BME280;36256;42.154;23.002;2023-02-24T13:22:02;96758.31;;;15.69;66.07
36630;BME280;36256;42.154;23.002;2023-02-24T13:24:31;96762.44;;;15.68;66.42
36630;BME280;36256;42.154;23.002;2023-02-24T13:27:36;96761.88;;;15.64;66.92
36630;BME280;36256;42.154;23.002;2023-02-24T13:32:40;96744.50;;;15.26;69.25
36630;BME280;36256;42.154;23.002;2023-02-24T13:37:42;96754.44;;;15.41;68.20
36630;BME280;36256;42.154;23.002;2023-02-24T13:45:23;96755.50;;;15.18;70.21
36630;BME280;36256;42.154;23.002;2023-02-24T13:56:36;96757.03;;;15.19;68.83
36630;BME280;36256;42.154;23.002;2023-02-24T14:01:55;96752.66;;;15.18;68.96
36630;BME280;36256;42.154;23.002;2023-02-24T14:04:25;96752.75;;;15.29;68.55
36630;BME280;36256;42.154;23.002;2023-02-24T14:07:00;96753.22;;;15.22;69.31
36630;BME280;36256;42.154;23.002;2023-02-24T14:09:41;96752.19;;;15.00;70.69
36630;BME280;36256;42.154;23.002;2023-02-24T14:12:17;96740.97;;;14.85;70.81
36630;BME280;36256;42.154;23.002;2023-02-24T14:14:46;96754.16;;;14.93;70.30
36630;BME280;36256;42.154;23.002;2023-02-24T14:17:34;96754.94;;;14.94;70.17
36630;BME280;36256;42.154;23.002;2023-02-24T14:20:20;96757.72;;;14.88;70.26
36630;BME280;36256;42.154;23.002;2023-02-24T14:22:54;96751.28;;;14.88;70.73
36630;BME280;36256;42.154;23.002;2023-02-24T14:25:29;96751.53;;;14.84;71.54
36630;BME280;36256;42.154;23.002;2023-02-24T14:28:00;96748.25;;;14.91;71.61
36630;BME280;36256;42.154;23.002;2023-02-24T14:30:37;96738.97;;;14.91;71.81
36630;BME280;36256;42.154;23.002;2023-02-24T14:33:06;96733.47;;;15.02;71.34
36630;BME280;36256;42.154;23.002;2023-02-24T14:35:38;96740.19;;;15.05;71.09
36630;BME280;36256;42.154;23.002;2023-02-24T14:38:05;96742.78;;;15.08;71.42
36630;BME280;36256;42.154;23.002;2023-02-24T14:40:32;96732.47;;;15.05;71.41
36630;BME280;36256;42.154;23.002;2023-02-24T14:42:59;96724.72;;;15.00;70.92
36630;BME280;36256;42.154;23.002;2023-02-24T14:45:27;96736.09;;;15.06;71.36
36630;BME280;36256;42.154;23.002;2023-02-24T14:47:55;96738.69;;;15.09;71.13
36630;BME280;36256;42.154;23.002;2023-02-24T14:50:26;96729.66;;;15.05;70.60
36630;BME280;36256;42.154;23.002;2023-02-24T14:53:06;96725.81;;;15.08;70.85
36630;BME280;36256;42.154;23.002;2023-02-24T14:55:38;96739.53;;;15.15;70.41
36630;BME280;36256;42.154;23.002;2023-02-24T15:03:45;96727.09;;;15.07;70.32
36630;BME280;36256;42.154;23.002;2023-02-24T15:06:19;96734.81;;;15.07;70.49
36630;BME280;36256;42.154;23.002;2023-02-24T15:08:55;96729.56;;;15.00;70.88
36630;BME280;36256;42.154;23.002;2023-02-24T15:11:27;96723.59;;;14.92;70.86
36630;BME280;36256;42.154;23.002;2023-02-24T15:13:57;96723.81;;;14.88;71.21
36630;BME280;36256;42.154;23.002;2023-02-24T15:16:28;96731.09;;;14.75;71.99